VKG426 ESMS-LGSA
Flight info
| Callsign | VKG426 |
|---|---|
| Flight time | 3h 9m |
| Altitude | 35000 |
| Route | TELMO Z491 VAVUN L996 DENKO DCT REGLI DCT BILNA DCT PARAK DCT RAXAD DCT MAKED UL617 SKP UM749 ATV UP169 MANOK L612 RUSOS |
| Aircraft | A321/M-SDE3FGHIRWY/LB1 |
Departure
| Time | 2026-05-07 10:11 |
|---|---|
| Airport | Malmö Sturup Airport (ESMS) |
Arrival
| Time | 2026-05-07 13:21 |
|---|---|
| Airport | Chania International Airport (LGSA) |
| Time | Latitude | Longitude | Altitude | Speed | Heading |
|---|---|---|---|---|---|
| 2026-05-07 09:44 | 55.54103 | 13.36850 | 232 ft | 0 kts | 173° |
| 2026-05-07 10:04 | 55.54105 | 13.36850 | 231 ft | 3 kts | 173° |
| 2026-05-07 10:04 | 55.54130 | 13.36845 | 235 ft | 2 kts | 173° |
| 2026-05-07 10:04 | 55.54152 | 13.36838 | 233 ft | 4 kts | 153° |
| 2026-05-07 10:05 | 55.54165 | 13.36812 | 231 ft | 3 kts | 84° |
| 2026-05-07 10:05 | 55.54163 | 13.36781 | 231 ft | 0 kts | 83° |
| 2026-05-07 10:07 | 55.54164 | 13.36806 | 231 ft | 5 kts | 83° |
| 2026-05-07 10:07 | 55.54171 | 13.36910 | 231 ft | 11 kts | 83° |
| 2026-05-07 10:08 | 55.54184 | 13.37061 | 232 ft | 12 kts | 71° |
| 2026-05-07 10:08 | 55.54233 | 13.37192 | 231 ft | 14 kts | 33° |
| 2026-05-07 10:08 | 55.54330 | 13.37183 | 231 ft | 14 kts | 353° |
| 2026-05-07 10:08 | 55.54423 | 13.37164 | 231 ft | 13 kts | 353° |
| 2026-05-07 10:09 | 55.54511 | 13.37146 | 231 ft | 13 kts | 353° |
| 2026-05-07 10:09 | 55.54612 | 13.37133 | 231 ft | 16 kts | 10° |
| 2026-05-07 10:09 | 55.54718 | 13.37205 | 231 ft | 16 kts | 23° |
| 2026-05-07 10:09 | 55.54795 | 13.37312 | 234 ft | 13 kts | 73° |
| 2026-05-07 10:10 | 55.54736 | 13.37392 | 233 ft | 11 kts | 175° |
| 2026-05-07 10:10 | 55.54713 | 13.37397 | 233 ft | 0 kts | 173° |
| 2026-05-07 10:10 | 55.54677 | 13.37405 | 233 ft | 27 kts | 172° |
| 2026-05-07 10:10 | 55.54223 | 13.37500 | 239 ft | 101 kts | 173° |
| 2026-05-07 10:11 | 55.53325 | 13.37684 | 241 ft | 157 kts | 173° |
| 2026-05-07 10:11 | 55.52149 | 13.37935 | 642 ft | 170 kts | 173° |
| 2026-05-07 10:11 | 55.50975 | 13.38175 | 1397 ft | 170 kts | 173° |
| 2026-05-07 10:11 | 55.49789 | 13.38412 | 2027 ft | 177 kts | 173° |
| 2026-05-07 10:12 | 55.48521 | 13.38682 | 2302 ft | 193 kts | 173° |
| 2026-05-07 10:12 | 55.47113 | 13.38924 | 2506 ft | 213 kts | 172° |
| 2026-05-07 10:12 | 55.45571 | 13.39228 | 2669 ft | 235 kts | 171° |
| 2026-05-07 10:12 | 55.43986 | 13.40294 | 2921 ft | 255 kts | 140° |
| 2026-05-07 10:13 | 55.42655 | 13.42398 | 3596 ft | 261 kts | 135° |
| 2026-05-07 10:13 | 55.41304 | 13.44565 | 4377 ft | 265 kts | 135° |
| 2026-05-07 10:13 | 55.39922 | 13.46747 | 5174 ft | 269 kts | 135° |
| 2026-05-07 10:13 | 55.38513 | 13.48951 | 5937 ft | 273 kts | 136° |
| 2026-05-07 10:14 | 55.37080 | 13.51185 | 6666 ft | 278 kts | 136° |
| 2026-05-07 10:14 | 55.35624 | 13.53452 | 7344 ft | 282 kts | 136° |
| 2026-05-07 10:14 | 55.34153 | 13.55749 | 8043 ft | 285 kts | 137° |
| 2026-05-07 10:14 | 55.32665 | 13.58069 | 8761 ft | 287 kts | 137° |
| 2026-05-07 10:15 | 55.31164 | 13.60407 | 9474 ft | 290 kts | 137° |
| 2026-05-07 10:15 | 55.29648 | 13.62767 | 10137 ft | 293 kts | 138° |
| 2026-05-07 10:15 | 55.28081 | 13.65208 | 10396 ft | 312 kts | 138° |
| 2026-05-07 10:15 | 55.26403 | 13.67814 | 10522 ft | 333 kts | 138° |
| 2026-05-07 10:16 | 55.24617 | 13.70586 | 10657 ft | 352 kts | 138° |
| 2026-05-07 10:16 | 55.22758 | 13.73468 | 11084 ft | 360 kts | 139° |
| 2026-05-07 10:16 | 55.20868 | 13.76391 | 11676 ft | 364 kts | 139° |
| 2026-05-07 10:16 | 55.18964 | 13.79334 | 12296 ft | 367 kts | 139° |
| 2026-05-07 10:17 | 55.17042 | 13.82301 | 12914 ft | 370 kts | 139° |
| 2026-05-07 10:17 | 55.15103 | 13.85288 | 13535 ft | 373 kts | 139° |
| 2026-05-07 10:17 | 55.13146 | 13.88300 | 14103 ft | 377 kts | 139° |
| 2026-05-07 10:17 | 55.11167 | 13.91338 | 14618 ft | 380 kts | 140° |
| 2026-05-07 10:18 | 55.09171 | 13.94398 | 15156 ft | 383 kts | 140° |
| 2026-05-07 10:18 | 55.07185 | 13.97435 | 15690 ft | 386 kts | 140° |
| 2026-05-07 10:18 | 55.05161 | 14.00531 | 16217 ft | 389 kts | 140° |
| 2026-05-07 10:18 | 55.03121 | 14.03649 | 16739 ft | 391 kts | 140° |
| 2026-05-07 10:19 | 55.01064 | 14.06786 | 17246 ft | 394 kts | 140° |
| 2026-05-07 10:19 | 54.98991 | 14.09946 | 17734 ft | 397 kts | 141° |
| 2026-05-07 10:19 | 54.96902 | 14.13119 | 18218 ft | 400 kts | 141° |
| 2026-05-07 10:19 | 54.94796 | 14.16315 | 18648 ft | 403 kts | 141° |
| 2026-05-07 10:20 | 54.92683 | 14.19523 | 19099 ft | 404 kts | 141° |
| 2026-05-07 10:20 | 54.90557 | 14.22745 | 19533 ft | 406 kts | 141° |
| 2026-05-07 10:20 | 54.88421 | 14.25974 | 19959 ft | 409 kts | 141° |
| 2026-05-07 10:20 | 54.86270 | 14.29219 | 20375 ft | 411 kts | 142° |
| 2026-05-07 10:21 | 54.84105 | 14.32481 | 20806 ft | 413 kts | 142° |
| 2026-05-07 10:21 | 54.81931 | 14.35754 | 21215 ft | 415 kts | 142° |
| 2026-05-07 10:21 | 54.79744 | 14.39043 | 21633 ft | 417 kts | 142° |
| 2026-05-07 10:21 | 54.77549 | 14.42343 | 22047 ft | 419 kts | 142° |
| 2026-05-07 10:22 | 54.75339 | 14.45664 | 22456 ft | 422 kts | 142° |
| 2026-05-07 10:22 | 54.73117 | 14.48997 | 22868 ft | 424 kts | 142° |
| 2026-05-07 10:22 | 54.70880 | 14.52342 | 23274 ft | 426 kts | 142° |
| 2026-05-07 10:22 | 54.68633 | 14.55695 | 23664 ft | 428 kts | 142° |
| 2026-05-07 10:23 | 54.66371 | 14.59063 | 23996 ft | 430 kts | 142° |
| 2026-05-07 10:23 | 54.64098 | 14.62438 | 24326 ft | 432 kts | 142° |
| 2026-05-07 10:23 | 54.61816 | 14.65824 | 24651 ft | 434 kts | 142° |
| 2026-05-07 10:23 | 54.59462 | 14.69078 | 24962 ft | 432 kts | 149° |
| 2026-05-07 10:24 | 54.56875 | 14.71662 | 25311 ft | 429 kts | 158° |
| 2026-05-07 10:24 | 54.54112 | 14.73538 | 25651 ft | 427 kts | 164° |
| 2026-05-07 10:24 | 54.51304 | 14.75236 | 25986 ft | 428 kts | 164° |
| 2026-05-07 10:24 | 54.48495 | 14.76944 | 26320 ft | 429 kts | 164° |
| 2026-05-07 10:25 | 54.45675 | 14.78658 | 26655 ft | 430 kts | 164° |
| 2026-05-07 10:25 | 54.42848 | 14.80373 | 26971 ft | 432 kts | 164° |
| 2026-05-07 10:25 | 54.40012 | 14.82090 | 27279 ft | 433 kts | 164° |
| 2026-05-07 10:25 | 54.37168 | 14.83815 | 27592 ft | 434 kts | 164° |
| 2026-05-07 10:26 | 54.34317 | 14.85541 | 27891 ft | 435 kts | 164° |
| 2026-05-07 10:26 | 54.31456 | 14.87262 | 28220 ft | 436 kts | 164° |
| 2026-05-07 10:26 | 54.28593 | 14.88982 | 28540 ft | 437 kts | 164° |
| 2026-05-07 10:26 | 54.25754 | 14.90673 | 28846 ft | 438 kts | 164° |
| 2026-05-07 10:27 | 54.22873 | 14.92345 | 29219 ft | 437 kts | 165° |
| 2026-05-07 10:27 | 54.20000 | 14.93982 | 29645 ft | 434 kts | 165° |
| 2026-05-07 10:27 | 54.17135 | 14.95606 | 30065 ft | 432 kts | 165° |
| 2026-05-07 10:27 | 54.14287 | 14.97221 | 30399 ft | 431 kts | 165° |
| 2026-05-07 10:28 | 54.11446 | 14.98829 | 30736 ft | 429 kts | 165° |
| 2026-05-07 10:28 | 54.08617 | 15.00429 | 31061 ft | 428 kts | 165° |
| 2026-05-07 10:28 | 54.05786 | 15.02022 | 31350 ft | 428 kts | 165° |
| 2026-05-07 10:28 | 54.02952 | 15.03584 | 31640 ft | 428 kts | 166° |
| 2026-05-07 10:29 | 54.00118 | 15.05120 | 31930 ft | 428 kts | 166° |
| 2026-05-07 10:29 | 53.97279 | 15.06648 | 32214 ft | 428 kts | 166° |
| 2026-05-07 10:29 | 53.94442 | 15.08176 | 32503 ft | 427 kts | 166° |
| 2026-05-07 10:30 | 53.88778 | 15.11232 | 33002 ft | 428 kts | 167° |
| 2026-05-07 10:30 | 53.85956 | 15.12760 | 33045 ft | 424 kts | 167° |
| 2026-05-07 10:30 | 53.80364 | 15.15780 | 33042 ft | 421 kts | 167° |
| 2026-05-07 10:31 | 53.74788 | 15.18779 | 33040 ft | 420 kts | 166° |
| 2026-05-07 10:31 | 53.69217 | 15.21775 | 33036 ft | 420 kts | 166° |
| 2026-05-07 10:32 | 53.63649 | 15.24753 | 33033 ft | 420 kts | 167° |
| 2026-05-07 10:32 | 53.58079 | 15.27712 | 33036 ft | 420 kts | 167° |
| 2026-05-07 10:33 | 53.52512 | 15.30663 | 33026 ft | 419 kts | 167° |
| 2026-05-07 10:33 | 53.47002 | 15.33719 | 33016 ft | 422 kts | 161° |
| 2026-05-07 10:34 | 53.41651 | 15.37828 | 33011 ft | 423 kts | 160° |
| 2026-05-07 10:34 | 53.36270 | 15.41977 | 33350 ft | 427 kts | 160° |
| 2026-05-07 10:35 | 53.33570 | 15.44052 | 33632 ft | 427 kts | 160° |
| 2026-05-07 10:35 | 53.30866 | 15.46120 | 33913 ft | 427 kts | 160° |
| 2026-05-07 10:35 | 53.28163 | 15.48179 | 34163 ft | 427 kts | 160° |
| 2026-05-07 10:35 | 53.25459 | 15.50236 | 34383 ft | 427 kts | 160° |
| 2026-05-07 10:36 | 53.22754 | 15.52293 | 34564 ft | 427 kts | 160° |
| 2026-05-07 10:36 | 53.20058 | 15.54349 | 34842 ft | 425 kts | 160° |
| 2026-05-07 10:36 | 53.17371 | 15.56397 | 34990 ft | 425 kts | 160° |
| 2026-05-07 10:36 | 53.14683 | 15.58441 | 35022 ft | 424 kts | 160° |
| 2026-05-07 10:37 | 53.09318 | 15.62507 | 35021 ft | 423 kts | 160° |
| 2026-05-07 10:37 | 53.03953 | 15.66546 | 35019 ft | 423 kts | 160° |
| 2026-05-07 10:38 | 52.98585 | 15.70585 | 35016 ft | 423 kts | 160° |
| 2026-05-07 10:38 | 52.93221 | 15.74617 | 35018 ft | 423 kts | 160° |
| 2026-05-07 10:39 | 52.87861 | 15.78627 | 35020 ft | 423 kts | 160° |
| 2026-05-07 10:39 | 52.82498 | 15.82632 | 34989 ft | 423 kts | 160° |
| 2026-05-07 10:40 | 52.77174 | 15.86793 | 34992 ft | 424 kts | 158° |
| 2026-05-07 10:40 | 52.71918 | 15.91249 | 34998 ft | 425 kts | 157° |
| 2026-05-07 10:41 | 52.66698 | 15.95677 | 35003 ft | 425 kts | 157° |
| 2026-05-07 10:41 | 52.61418 | 16.00049 | 34999 ft | 424 kts | 158° |
| 2026-05-07 10:42 | 52.56131 | 16.04359 | 34995 ft | 424 kts | 158° |
| 2026-05-07 10:42 | 52.50845 | 16.08665 | 34998 ft | 424 kts | 158° |
| 2026-05-07 10:43 | 52.45563 | 16.12990 | 34973 ft | 424 kts | 158° |
| 2026-05-07 10:43 | 52.40288 | 16.17311 | 34988 ft | 424 kts | 158° |
| 2026-05-07 10:44 | 52.35012 | 16.21597 | 34998 ft | 423 kts | 158° |
| 2026-05-07 10:44 | 52.29737 | 16.25875 | 34996 ft | 423 kts | 158° |
| 2026-05-07 10:45 | 52.24461 | 16.30139 | 34997 ft | 423 kts | 158° |
| 2026-05-07 10:45 | 52.19185 | 16.34399 | 34999 ft | 423 kts | 158° |
| 2026-05-07 10:46 | 52.13907 | 16.38652 | 34995 ft | 423 kts | 158° |
| 2026-05-07 10:46 | 52.08635 | 16.42878 | 34962 ft | 422 kts | 159° |
| 2026-05-07 10:47 | 52.03367 | 16.47086 | 34989 ft | 421 kts | 159° |
| 2026-05-07 10:47 | 51.98107 | 16.51275 | 34991 ft | 421 kts | 159° |
| 2026-05-07 10:48 | 51.92849 | 16.55451 | 34996 ft | 421 kts | 159° |
| 2026-05-07 10:48 | 51.87599 | 16.59615 | 34992 ft | 420 kts | 159° |
| 2026-05-07 10:49 | 51.82349 | 16.63774 | 34990 ft | 420 kts | 159° |
| 2026-05-07 10:49 | 51.77105 | 16.67922 | 34991 ft | 419 kts | 159° |
| 2026-05-07 10:50 | 51.71900 | 16.72027 | 34963 ft | 419 kts | 159° |
| 2026-05-07 10:50 | 51.66663 | 16.76144 | 34980 ft | 418 kts | 159° |
| 2026-05-07 10:51 | 51.61433 | 16.80233 | 34981 ft | 418 kts | 159° |
| 2026-05-07 10:51 | 51.56208 | 16.84320 | 34982 ft | 418 kts | 159° |
| 2026-05-07 10:52 | 51.51826 | 16.87732 | 34980 ft | 417 kts | 159° |
| 2026-05-07 10:52 | 51.46599 | 16.91790 | 34983 ft | 417 kts | 159° |
| 2026-05-07 10:53 | 51.41371 | 16.95845 | 34981 ft | 417 kts | 159° |
| 2026-05-07 10:53 | 51.36150 | 16.99890 | 34953 ft | 417 kts | 160° |
| 2026-05-07 10:54 | 51.30963 | 17.03890 | 34965 ft | 416 kts | 160° |
| 2026-05-07 10:54 | 51.25746 | 17.07902 | 34981 ft | 416 kts | 160° |
| 2026-05-07 10:55 | 51.20537 | 17.11911 | 34981 ft | 415 kts | 160° |
| 2026-05-07 10:55 | 51.15333 | 17.15903 | 34978 ft | 415 kts | 160° |
| 2026-05-07 10:56 | 51.10129 | 17.19875 | 34969 ft | 415 kts | 160° |
| 2026-05-07 10:56 | 51.04924 | 17.23839 | 34969 ft | 414 kts | 160° |
| 2026-05-07 10:57 | 50.99727 | 17.27784 | 34932 ft | 414 kts | 160° |
| 2026-05-07 10:57 | 50.94538 | 17.31726 | 34941 ft | 413 kts | 160° |
| 2026-05-07 10:58 | 50.89357 | 17.35654 | 34943 ft | 412 kts | 161° |
| 2026-05-07 10:58 | 50.84182 | 17.39552 | 34933 ft | 412 kts | 161° |
| 2026-05-07 10:59 | 50.79003 | 17.43438 | 34934 ft | 412 kts | 161° |
| 2026-05-07 10:59 | 50.73831 | 17.47320 | 34931 ft | 411 kts | 161° |
| 2026-05-07 11:00 | 50.68667 | 17.51200 | 34924 ft | 411 kts | 161° |
| 2026-05-07 11:00 | 50.63510 | 17.55057 | 34895 ft | 410 kts | 161° |
| 2026-05-07 11:01 | 50.58349 | 17.58903 | 34905 ft | 410 kts | 161° |
| 2026-05-07 11:01 | 50.53193 | 17.62740 | 34906 ft | 410 kts | 161° |
| 2026-05-07 11:02 | 50.48039 | 17.66564 | 34908 ft | 410 kts | 161° |
| 2026-05-07 11:02 | 50.42883 | 17.70372 | 34911 ft | 410 kts | 161° |
| 2026-05-07 11:03 | 50.37724 | 17.74174 | 34912 ft | 410 kts | 161° |
| 2026-05-07 11:03 | 50.32563 | 17.77973 | 34914 ft | 410 kts | 161° |
| 2026-05-07 11:04 | 50.27398 | 17.81775 | 34888 ft | 411 kts | 160° |
| 2026-05-07 11:04 | 50.22217 | 17.85570 | 34897 ft | 412 kts | 160° |
| 2026-05-07 11:05 | 50.17028 | 17.89363 | 34910 ft | 412 kts | 160° |
| 2026-05-07 11:05 | 50.11835 | 17.93154 | 34918 ft | 412 kts | 160° |
| 2026-05-07 11:06 | 50.06640 | 17.96938 | 34917 ft | 412 kts | 160° |
| 2026-05-07 11:06 | 50.01434 | 18.00706 | 34923 ft | 413 kts | 160° |
| 2026-05-07 11:07 | 49.96224 | 18.04443 | 34932 ft | 412 kts | 161° |
| 2026-05-07 11:07 | 49.91012 | 18.08178 | 34938 ft | 412 kts | 160° |
| 2026-05-07 11:08 | 49.85837 | 18.11870 | 34937 ft | 412 kts | 160° |
| 2026-05-07 11:08 | 49.80623 | 18.15589 | 34938 ft | 412 kts | 160° |
| 2026-05-07 11:09 | 49.75412 | 18.19305 | 34938 ft | 413 kts | 160° |
| 2026-05-07 11:09 | 49.70190 | 18.23019 | 34937 ft | 413 kts | 160° |
| 2026-05-07 11:10 | 49.64969 | 18.26716 | 34941 ft | 413 kts | 160° |
| 2026-05-07 11:10 | 49.59747 | 18.30407 | 34913 ft | 413 kts | 160° |
| 2026-05-07 11:11 | 49.54515 | 18.34089 | 34925 ft | 414 kts | 160° |
| 2026-05-07 11:11 | 49.49271 | 18.37773 | 34934 ft | 414 kts | 160° |
| 2026-05-07 11:12 | 49.44028 | 18.41458 | 34945 ft | 415 kts | 160° |
| 2026-05-07 11:12 | 49.38769 | 18.45096 | 34954 ft | 414 kts | 162° |
| 2026-05-07 11:13 | 49.33403 | 18.48205 | 34954 ft | 411 kts | 166° |
| 2026-05-07 11:13 | 49.27978 | 18.50998 | 34967 ft | 411 kts | 166° |
| 2026-05-07 11:14 | 49.22561 | 18.53821 | 34946 ft | 412 kts | 166° |
| 2026-05-07 11:14 | 49.17148 | 18.56741 | 34941 ft | 413 kts | 166° |
| 2026-05-07 11:15 | 49.11732 | 18.59684 | 34941 ft | 413 kts | 166° |
| 2026-05-07 11:15 | 49.06310 | 18.62604 | 34947 ft | 413 kts | 166° |
| 2026-05-07 11:16 | 49.00882 | 18.65513 | 34958 ft | 414 kts | 166° |
| 2026-05-07 11:16 | 48.95497 | 18.68394 | 34965 ft | 413 kts | 166° |
| 2026-05-07 11:17 | 48.90071 | 18.71290 | 34966 ft | 413 kts | 166° |
| 2026-05-07 11:17 | 48.84646 | 18.74188 | 34934 ft | 413 kts | 166° |
| 2026-05-07 11:18 | 48.79217 | 18.77086 | 34945 ft | 414 kts | 166° |
| 2026-05-07 11:18 | 48.73777 | 18.79980 | 34957 ft | 414 kts | 166° |
| 2026-05-07 11:19 | 48.68328 | 18.82860 | 34962 ft | 415 kts | 167° |
| 2026-05-07 11:19 | 48.62877 | 18.85727 | 34967 ft | 415 kts | 166° |
| 2026-05-07 11:20 | 48.57425 | 18.88587 | 34972 ft | 415 kts | 167° |
| 2026-05-07 11:20 | 48.51972 | 18.91447 | 34975 ft | 415 kts | 166° |
| 2026-05-07 11:21 | 48.46523 | 18.94317 | 34948 ft | 415 kts | 166° |
| 2026-05-07 11:21 | 48.41062 | 18.97179 | 34955 ft | 416 kts | 166° |
| 2026-05-07 11:22 | 48.35589 | 19.00039 | 34953 ft | 416 kts | 167° |
| 2026-05-07 11:22 | 48.30125 | 19.02892 | 34958 ft | 416 kts | 167° |
| 2026-05-07 11:23 | 48.24688 | 19.05713 | 34955 ft | 416 kts | 167° |
| 2026-05-07 11:23 | 48.19172 | 19.08569 | 34969 ft | 417 kts | 167° |
| 2026-05-07 11:24 | 48.13693 | 19.11396 | 34931 ft | 417 kts | 167° |
| 2026-05-07 11:24 | 48.08203 | 19.14230 | 34943 ft | 418 kts | 167° |
| 2026-05-07 11:25 | 48.02704 | 19.17065 | 34948 ft | 418 kts | 167° |
| 2026-05-07 11:25 | 47.97198 | 19.19895 | 34954 ft | 419 kts | 167° |
| 2026-05-07 11:26 | 47.91725 | 19.22703 | 34965 ft | 419 kts | 167° |
| 2026-05-07 11:26 | 47.86208 | 19.25522 | 34970 ft | 419 kts | 167° |
| 2026-05-07 11:27 | 47.80692 | 19.28337 | 34980 ft | 419 kts | 167° |
| 2026-05-07 11:27 | 47.75173 | 19.31145 | 34959 ft | 419 kts | 166° |
| 2026-05-07 11:28 | 47.69649 | 19.33956 | 34972 ft | 420 kts | 166° |
| 2026-05-07 11:28 | 47.64108 | 19.36768 | 34978 ft | 421 kts | 167° |
| 2026-05-07 11:29 | 47.58564 | 19.39574 | 34985 ft | 421 kts | 167° |
| 2026-05-07 11:29 | 47.53025 | 19.42376 | 34991 ft | 421 kts | 167° |
| 2026-05-07 11:30 | 47.47480 | 19.45160 | 34994 ft | 421 kts | 167° |
| 2026-05-07 11:30 | 47.41936 | 19.47938 | 34995 ft | 421 kts | 167° |
| 2026-05-07 11:31 | 47.36394 | 19.50717 | 34975 ft | 421 kts | 167° |
| 2026-05-07 11:31 | 47.30844 | 19.53495 | 34982 ft | 421 kts | 167° |
| 2026-05-07 11:32 | 47.22513 | 19.57661 | 34989 ft | 422 kts | 167° |
| 2026-05-07 11:33 | 47.16964 | 19.60425 | 34992 ft | 421 kts | 167° |
| 2026-05-07 11:33 | 47.11413 | 19.63178 | 34997 ft | 421 kts | 167° |
| 2026-05-07 11:34 | 47.05864 | 19.65915 | 35001 ft | 421 kts | 167° |
| 2026-05-07 11:34 | 47.00311 | 19.68656 | 34979 ft | 421 kts | 167° |
| 2026-05-07 11:35 | 46.94761 | 19.71398 | 34980 ft | 421 kts | 167° |
| 2026-05-07 11:35 | 46.89248 | 19.74117 | 34989 ft | 421 kts | 167° |
| 2026-05-07 11:36 | 46.83701 | 19.76841 | 34995 ft | 420 kts | 167° |
| 2026-05-07 11:36 | 46.78158 | 19.79545 | 34997 ft | 420 kts | 167° |
| 2026-05-07 11:37 | 46.72620 | 19.82247 | 35001 ft | 420 kts | 167° |
| 2026-05-07 11:37 | 46.67085 | 19.84955 | 34979 ft | 420 kts | 166° |
| 2026-05-07 11:38 | 46.61550 | 19.87658 | 34994 ft | 420 kts | 166° |
| 2026-05-07 11:38 | 46.56008 | 19.90351 | 35008 ft | 420 kts | 166° |
| 2026-05-07 11:39 | 46.50465 | 19.93028 | 35021 ft | 420 kts | 166° |
| 2026-05-07 11:39 | 46.45855 | 19.95255 | 35024 ft | 420 kts | 166° |
| 2026-05-07 11:40 | 46.40311 | 19.97934 | 35016 ft | 420 kts | 166° |
| 2026-05-07 11:40 | 46.34766 | 20.00608 | 35020 ft | 420 kts | 166° |
| 2026-05-07 11:41 | 46.29215 | 20.03275 | 35026 ft | 420 kts | 166° |
| 2026-05-07 11:41 | 46.23663 | 20.05931 | 35032 ft | 420 kts | 166° |
| 2026-05-07 11:42 | 46.18111 | 20.08587 | 35028 ft | 421 kts | 166° |
| 2026-05-07 11:42 | 46.12592 | 20.11443 | 35022 ft | 423 kts | 163° |
| 2026-05-07 11:43 | 46.07162 | 20.14768 | 35018 ft | 424 kts | 161° |
| 2026-05-07 11:43 | 46.01747 | 20.18159 | 35020 ft | 424 kts | 162° |
| 2026-05-07 11:44 | 45.96299 | 20.21439 | 35004 ft | 424 kts | 162° |
| 2026-05-07 11:44 | 45.90830 | 20.24659 | 35010 ft | 425 kts | 162° |
| 2026-05-07 11:45 | 45.85352 | 20.27881 | 35012 ft | 426 kts | 162° |
| 2026-05-07 11:45 | 45.79860 | 20.31119 | 35020 ft | 427 kts | 162° |
| 2026-05-07 11:46 | 45.74377 | 20.34358 | 35022 ft | 427 kts | 162° |
| 2026-05-07 11:46 | 45.68889 | 20.37594 | 35032 ft | 426 kts | 162° |
| 2026-05-07 11:47 | 45.63391 | 20.40815 | 35003 ft | 428 kts | 162° |
| 2026-05-07 11:47 | 45.57862 | 20.44045 | 35012 ft | 431 kts | 162° |
| 2026-05-07 11:48 | 45.52305 | 20.47293 | 35013 ft | 431 kts | 162° |
| 2026-05-07 11:48 | 45.46752 | 20.50537 | 35010 ft | 432 kts | 162° |
| 2026-05-07 11:49 | 45.41183 | 20.53783 | 35013 ft | 433 kts | 162° |
| 2026-05-07 11:49 | 45.35610 | 20.57026 | 35008 ft | 433 kts | 162° |
| 2026-05-07 11:50 | 45.30031 | 20.60264 | 35021 ft | 433 kts | 162° |
| 2026-05-07 11:50 | 45.24494 | 20.63459 | 35042 ft | 432 kts | 162° |
| 2026-05-07 11:51 | 45.18926 | 20.66670 | 35042 ft | 431 kts | 162° |
| 2026-05-07 11:51 | 45.13370 | 20.69872 | 35044 ft | 431 kts | 162° |
| 2026-05-07 11:52 | 45.07820 | 20.73061 | 35049 ft | 430 kts | 162° |
| 2026-05-07 11:52 | 45.02273 | 20.76244 | 35043 ft | 430 kts | 163° |
| 2026-05-07 11:53 | 44.96739 | 20.79414 | 35050 ft | 429 kts | 163° |
| 2026-05-07 11:53 | 44.91215 | 20.82573 | 35051 ft | 428 kts | 163° |
| 2026-05-07 11:54 | 44.85694 | 20.85720 | 35049 ft | 428 kts | 163° |
| 2026-05-07 11:54 | 44.80178 | 20.88850 | 35046 ft | 427 kts | 163° |
| 2026-05-07 11:55 | 44.74663 | 20.91978 | 35025 ft | 427 kts | 163° |
| 2026-05-07 11:55 | 44.69160 | 20.95095 | 35042 ft | 426 kts | 163° |
| 2026-05-07 11:56 | 44.63669 | 20.98187 | 35049 ft | 425 kts | 163° |
| 2026-05-07 11:56 | 44.58182 | 21.01282 | 35045 ft | 424 kts | 163° |
| 2026-05-07 11:57 | 44.52711 | 21.04371 | 35056 ft | 423 kts | 163° |
| 2026-05-07 11:57 | 44.47288 | 21.07422 | 35055 ft | 422 kts | 163° |
| 2026-05-07 11:58 | 44.41837 | 21.10473 | 35044 ft | 422 kts | 163° |
| 2026-05-07 11:58 | 44.36388 | 21.13516 | 35047 ft | 421 kts | 163° |
| 2026-05-07 11:59 | 44.30948 | 21.16561 | 35053 ft | 421 kts | 163° |
| 2026-05-07 11:59 | 44.25513 | 21.19585 | 35060 ft | 420 kts | 163° |
| 2026-05-07 12:00 | 44.20084 | 21.22601 | 35062 ft | 420 kts | 163° |
| 2026-05-07 12:00 | 44.14659 | 21.25621 | 35046 ft | 420 kts | 162° |
| 2026-05-07 12:01 | 44.09228 | 21.28631 | 35050 ft | 421 kts | 162° |
| 2026-05-07 12:01 | 44.03778 | 21.31635 | 35055 ft | 422 kts | 162° |
| 2026-05-07 12:02 | 43.98322 | 21.34642 | 35063 ft | 422 kts | 162° |
| 2026-05-07 12:02 | 43.92859 | 21.37658 | 35056 ft | 423 kts | 162° |
| 2026-05-07 12:03 | 43.87391 | 21.40669 | 35062 ft | 423 kts | 162° |
| 2026-05-07 12:03 | 43.81912 | 21.43676 | 35052 ft | 424 kts | 162° |
| 2026-05-07 12:04 | 43.76415 | 21.46682 | 35069 ft | 425 kts | 162° |
| 2026-05-07 12:04 | 43.70906 | 21.49688 | 35068 ft | 426 kts | 162° |
| 2026-05-07 12:05 | 43.65390 | 21.52691 | 35075 ft | 427 kts | 162° |
| 2026-05-07 12:05 | 43.59855 | 21.55694 | 35082 ft | 428 kts | 162° |
| 2026-05-07 12:06 | 43.54314 | 21.58705 | 35082 ft | 428 kts | 162° |
| 2026-05-07 12:06 | 43.48806 | 21.61701 | 35087 ft | 428 kts | 162° |
| 2026-05-07 12:07 | 43.43262 | 21.64704 | 35098 ft | 428 kts | 162° |
| 2026-05-07 12:07 | 43.37715 | 21.67688 | 35100 ft | 428 kts | 162° |
| 2026-05-07 12:08 | 43.32162 | 21.70684 | 35106 ft | 429 kts | 162° |
| 2026-05-07 12:08 | 43.26609 | 21.73674 | 35104 ft | 429 kts | 162° |
| 2026-05-07 12:09 | 43.21050 | 21.76659 | 35114 ft | 429 kts | 162° |
| 2026-05-07 12:09 | 43.15487 | 21.79635 | 35118 ft | 429 kts | 162° |
| 2026-05-07 12:10 | 43.09925 | 21.82609 | 35121 ft | 429 kts | 162° |
| 2026-05-07 12:10 | 43.04367 | 21.85578 | 35121 ft | 429 kts | 162° |
| 2026-05-07 12:11 | 42.98805 | 21.88534 | 35118 ft | 428 kts | 162° |
| 2026-05-07 12:11 | 42.93247 | 21.91483 | 35104 ft | 429 kts | 162° |
| 2026-05-07 12:12 | 42.87693 | 21.94429 | 35109 ft | 429 kts | 162° |
| 2026-05-07 12:12 | 42.82130 | 21.97384 | 35109 ft | 429 kts | 162° |
| 2026-05-07 12:13 | 42.76570 | 22.00335 | 35103 ft | 429 kts | 162° |
| 2026-05-07 12:13 | 42.71001 | 22.03266 | 35107 ft | 430 kts | 163° |
| 2026-05-07 12:14 | 42.65420 | 22.06191 | 35114 ft | 430 kts | 162° |
| 2026-05-07 12:14 | 42.59841 | 22.09121 | 35120 ft | 430 kts | 162° |
| 2026-05-07 12:15 | 42.54259 | 22.12042 | 35124 ft | 430 kts | 162° |
| 2026-05-07 12:15 | 42.48683 | 22.14966 | 35131 ft | 430 kts | 162° |
| 2026-05-07 12:16 | 42.43110 | 22.17891 | 35131 ft | 429 kts | 162° |
| 2026-05-07 12:16 | 42.37536 | 22.20803 | 35122 ft | 429 kts | 163° |
| 2026-05-07 12:17 | 42.31952 | 22.23681 | 35126 ft | 429 kts | 165° |
| 2026-05-07 12:17 | 42.26183 | 22.25370 | 35131 ft | 424 kts | 174° |
| 2026-05-07 12:18 | 42.20409 | 22.26723 | 35120 ft | 424 kts | 174° |
| 2026-05-07 12:18 | 42.14563 | 22.28110 | 35131 ft | 424 kts | 174° |
| 2026-05-07 12:19 | 42.08791 | 22.29475 | 35122 ft | 424 kts | 174° |
| 2026-05-07 12:19 | 42.02976 | 22.30840 | 35130 ft | 424 kts | 174° |
| 2026-05-07 12:20 | 41.97159 | 22.32204 | 35121 ft | 424 kts | 174° |
| 2026-05-07 12:20 | 41.91342 | 22.33574 | 35133 ft | 424 kts | 174° |
| 2026-05-07 12:21 | 41.85526 | 22.34930 | 35133 ft | 424 kts | 174° |
| 2026-05-07 12:21 | 41.79706 | 22.36292 | 35141 ft | 425 kts | 174° |
| 2026-05-07 12:22 | 41.73880 | 22.37639 | 35134 ft | 425 kts | 174° |
| 2026-05-07 12:22 | 41.68050 | 22.38988 | 35134 ft | 425 kts | 174° |
| 2026-05-07 12:23 | 41.62219 | 22.40342 | 35139 ft | 425 kts | 174° |
| 2026-05-07 12:23 | 41.56383 | 22.41688 | 35125 ft | 426 kts | 174° |
| 2026-05-07 12:24 | 41.50534 | 22.43039 | 35131 ft | 427 kts | 173° |
| 2026-05-07 12:24 | 41.44675 | 22.44390 | 35134 ft | 428 kts | 173° |
| 2026-05-07 12:25 | 41.38804 | 22.45740 | 35133 ft | 428 kts | 174° |
| 2026-05-07 12:25 | 41.32929 | 22.47084 | 35131 ft | 428 kts | 173° |
| 2026-05-07 12:26 | 41.27097 | 22.48419 | 35136 ft | 428 kts | 173° |
| 2026-05-07 12:26 | 41.21263 | 22.50116 | 35141 ft | 431 kts | 167° |
| 2026-05-07 12:27 | 41.15511 | 22.52390 | 35133 ft | 432 kts | 166° |
| 2026-05-07 12:27 | 41.09764 | 22.54713 | 35137 ft | 432 kts | 166° |
| 2026-05-07 12:28 | 41.04943 | 22.56655 | 35139 ft | 432 kts | 166° |
| 2026-05-07 12:28 | 40.99184 | 22.58959 | 35144 ft | 432 kts | 166° |
| 2026-05-07 12:29 | 40.93418 | 22.61252 | 35135 ft | 433 kts | 166° |
| 2026-05-07 12:29 | 40.87644 | 22.63556 | 35136 ft | 434 kts | 166° |
| 2026-05-07 12:30 | 40.81865 | 22.65848 | 35135 ft | 434 kts | 166° |
| 2026-05-07 12:30 | 40.76120 | 22.68131 | 35134 ft | 434 kts | 166° |
| 2026-05-07 12:31 | 40.70343 | 22.70476 | 35128 ft | 434 kts | 166° |
| 2026-05-07 12:31 | 40.64556 | 22.72791 | 35122 ft | 435 kts | 166° |
| 2026-05-07 12:32 | 40.58758 | 22.75078 | 35123 ft | 435 kts | 166° |
| 2026-05-07 12:32 | 40.52948 | 22.77352 | 35125 ft | 436 kts | 166° |
| 2026-05-07 12:33 | 40.44226 | 22.80768 | 35114 ft | 437 kts | 166° |
| 2026-05-07 12:33 | 40.38395 | 22.83047 | 35117 ft | 438 kts | 166° |
| 2026-05-07 12:34 | 40.32546 | 22.85338 | 35123 ft | 439 kts | 166° |
| 2026-05-07 12:34 | 40.26693 | 22.87623 | 35114 ft | 439 kts | 166° |
| 2026-05-07 12:35 | 40.20827 | 22.89906 | 35122 ft | 440 kts | 166° |
| 2026-05-07 12:35 | 40.14947 | 22.92180 | 35130 ft | 441 kts | 166° |
| 2026-05-07 12:36 | 40.09096 | 22.94441 | 35141 ft | 442 kts | 166° |
| 2026-05-07 12:36 | 40.03205 | 22.96729 | 35132 ft | 442 kts | 166° |
| 2026-05-07 12:37 | 39.97301 | 22.99019 | 35130 ft | 443 kts | 166° |
| 2026-05-07 12:37 | 39.91383 | 23.01302 | 35129 ft | 444 kts | 166° |
| 2026-05-07 12:38 | 39.85466 | 23.03583 | 35132 ft | 444 kts | 166° |
| 2026-05-07 12:38 | 39.79539 | 23.05856 | 35118 ft | 444 kts | 166° |
| 2026-05-07 12:39 | 39.73600 | 23.08130 | 35120 ft | 446 kts | 166° |
| 2026-05-07 12:39 | 39.67648 | 23.10412 | 35124 ft | 446 kts | 166° |
| 2026-05-07 12:40 | 39.61687 | 23.12695 | 35123 ft | 447 kts | 166° |
| 2026-05-07 12:40 | 39.55709 | 23.14972 | 35117 ft | 448 kts | 167° |
| 2026-05-07 12:41 | 39.49727 | 23.17244 | 35123 ft | 449 kts | 167° |
| 2026-05-07 12:41 | 39.43727 | 23.19527 | 35124 ft | 450 kts | 167° |
| 2026-05-07 12:42 | 39.37723 | 23.21801 | 35119 ft | 450 kts | 167° |
| 2026-05-07 12:42 | 39.31711 | 23.24086 | 35113 ft | 451 kts | 167° |
| 2026-05-07 12:43 | 39.25675 | 23.26370 | 35115 ft | 453 kts | 167° |
| 2026-05-07 12:43 | 39.19620 | 23.28648 | 35123 ft | 454 kts | 167° |
| 2026-05-07 12:44 | 39.13555 | 23.30933 | 35102 ft | 454 kts | 168° |
| 2026-05-07 12:44 | 39.07471 | 23.33223 | 35102 ft | 457 kts | 168° |
| 2026-05-07 12:45 | 39.01352 | 23.35518 | 35104 ft | 459 kts | 168° |
| 2026-05-07 12:45 | 38.95213 | 23.37819 | 35109 ft | 460 kts | 168° |
| 2026-05-07 12:46 | 38.89067 | 23.40115 | 35098 ft | 461 kts | 169° |
| 2026-05-07 12:46 | 38.82890 | 23.42416 | 35092 ft | 463 kts | 169° |
| 2026-05-07 12:47 | 38.76731 | 23.44708 | 35092 ft | 465 kts | 169° |
| 2026-05-07 12:47 | 38.70463 | 23.47044 | 35097 ft | 467 kts | 169° |
| 2026-05-07 12:48 | 38.64218 | 23.49368 | 35084 ft | 468 kts | 170° |
| 2026-05-07 12:48 | 38.57938 | 23.51698 | 35090 ft | 471 kts | 170° |
| 2026-05-07 12:49 | 38.51672 | 23.54023 | 35092 ft | 473 kts | 170° |
| 2026-05-07 12:49 | 38.45351 | 23.56363 | 35080 ft | 473 kts | 171° |
| 2026-05-07 12:50 | 38.39013 | 23.58694 | 35092 ft | 474 kts | 171° |
| 2026-05-07 12:50 | 38.32662 | 23.61024 | 35096 ft | 476 kts | 171° |
| 2026-05-07 12:51 | 38.26294 | 23.63364 | 35110 ft | 477 kts | 171° |
| 2026-05-07 12:51 | 38.19920 | 23.65704 | 35119 ft | 477 kts | 171° |
| 2026-05-07 12:52 | 38.13539 | 23.68042 | 35123 ft | 478 kts | 171° |
| 2026-05-07 12:52 | 38.07149 | 23.70370 | 35125 ft | 478 kts | 171° |
| 2026-05-07 12:53 | 38.00756 | 23.72700 | 35127 ft | 478 kts | 171° |
| 2026-05-07 12:53 | 37.94364 | 23.75028 | 35122 ft | 478 kts | 171° |
| 2026-05-07 12:54 | 37.87980 | 23.77341 | 35132 ft | 477 kts | 171° |
| 2026-05-07 12:54 | 37.81599 | 23.79648 | 35137 ft | 477 kts | 171° |
| 2026-05-07 12:55 | 37.75222 | 23.81963 | 35130 ft | 477 kts | 171° |
| 2026-05-07 12:55 | 37.68847 | 23.84270 | 35139 ft | 477 kts | 171° |
| 2026-05-07 12:56 | 37.62472 | 23.86571 | 35147 ft | 476 kts | 171° |
| 2026-05-07 12:56 | 37.56098 | 23.88868 | 35150 ft | 476 kts | 171° |
| 2026-05-07 12:57 | 37.49724 | 23.91165 | 35123 ft | 477 kts | 170° |
| 2026-05-07 12:57 | 37.43334 | 23.93455 | 35121 ft | 478 kts | 170° |
| 2026-05-07 12:58 | 37.36979 | 23.95728 | 35123 ft | 478 kts | 170° |
| 2026-05-07 12:58 | 37.30575 | 23.98013 | 35125 ft | 479 kts | 170° |
| 2026-05-07 12:59 | 37.24161 | 24.00309 | 35115 ft | 480 kts | 170° |
| 2026-05-07 12:59 | 37.17736 | 24.02599 | 35128 ft | 480 kts | 170° |
| 2026-05-07 13:00 | 37.11300 | 24.04879 | 35142 ft | 481 kts | 170° |
| 2026-05-07 13:00 | 37.04858 | 24.07166 | 35139 ft | 481 kts | 170° |
| 2026-05-07 13:01 | 36.98526 | 24.09428 | 35144 ft | 459 kts | 170° |
| 2026-05-07 13:01 | 36.92399 | 24.11601 | 34309 ft | 473 kts | 170° |
| 2026-05-07 13:02 | 36.89166 | 24.12719 | 32967 ft | 490 kts | 169° |
| 2026-05-07 13:02 | 36.85837 | 24.13868 | 31620 ft | 503 kts | 169° |
| 2026-05-07 13:02 | 36.82447 | 24.15050 | 30722 ft | 505 kts | 169° |
| 2026-05-07 13:02 | 36.79088 | 24.16243 | 30026 ft | 501 kts | 169° |
| 2026-05-07 13:03 | 36.75733 | 24.17441 | 29171 ft | 501 kts | 168° |
| 2026-05-07 13:03 | 36.72395 | 24.18633 | 28499 ft | 497 kts | 168° |
| 2026-05-07 13:03 | 36.69091 | 24.19806 | 27869 ft | 490 kts | 168° |
| 2026-05-07 13:03 | 36.65835 | 24.20956 | 27044 ft | 483 kts | 168° |
| 2026-05-07 13:04 | 36.62624 | 24.22084 | 26254 ft | 476 kts | 168° |
| 2026-05-07 13:04 | 36.59460 | 24.23190 | 25495 ft | 469 kts | 168° |
| 2026-05-07 13:04 | 36.56344 | 24.24275 | 24743 ft | 462 kts | 168° |
| 2026-05-07 13:04 | 36.53272 | 24.25348 | 23977 ft | 456 kts | 168° |
| 2026-05-07 13:05 | 36.50237 | 24.26408 | 23147 ft | 450 kts | 168° |
| 2026-05-07 13:05 | 36.47283 | 24.27437 | 22500 ft | 444 kts | 168° |
| 2026-05-07 13:05 | 36.44337 | 24.28464 | 22029 ft | 436 kts | 168° |
| 2026-05-07 13:05 | 36.41438 | 24.29474 | 21531 ft | 429 kts | 168° |
| 2026-05-07 13:06 | 36.38584 | 24.30470 | 21072 ft | 423 kts | 167° |
| 2026-05-07 13:06 | 36.35774 | 24.31454 | 20601 ft | 417 kts | 167° |
| 2026-05-07 13:06 | 36.33004 | 24.32420 | 20125 ft | 411 kts | 167° |
| 2026-05-07 13:06 | 36.30262 | 24.33371 | 19652 ft | 406 kts | 167° |
| 2026-05-07 13:07 | 36.27558 | 24.34309 | 19176 ft | 402 kts | 167° |
| 2026-05-07 13:07 | 36.24878 | 24.35239 | 18697 ft | 398 kts | 167° |
| 2026-05-07 13:07 | 36.22203 | 24.35970 | 18189 ft | 391 kts | 176° |
| 2026-05-07 13:07 | 36.19516 | 24.36063 | 17706 ft | 382 kts | 187° |
| 2026-05-07 13:08 | 36.16928 | 24.35550 | 17256 ft | 374 kts | 196° |
| 2026-05-07 13:08 | 36.14406 | 24.34829 | 16804 ft | 370 kts | 196° |
| 2026-05-07 13:08 | 36.11909 | 24.34123 | 16353 ft | 366 kts | 195° |
| 2026-05-07 13:08 | 36.09434 | 24.33426 | 15909 ft | 363 kts | 195° |
| 2026-05-07 13:09 | 36.06986 | 24.32737 | 15466 ft | 360 kts | 195° |
| 2026-05-07 13:09 | 36.04553 | 24.32053 | 15030 ft | 357 kts | 195° |
| 2026-05-07 13:09 | 36.02132 | 24.31374 | 14590 ft | 355 kts | 195° |
| 2026-05-07 13:09 | 35.99729 | 24.30701 | 14149 ft | 353 kts | 195° |
| 2026-05-07 13:10 | 35.97335 | 24.30035 | 13674 ft | 352 kts | 195° |
| 2026-05-07 13:10 | 35.94970 | 24.29376 | 13434 ft | 343 kts | 195° |
| 2026-05-07 13:10 | 35.92679 | 24.28736 | 13272 ft | 332 kts | 195° |
| 2026-05-07 13:10 | 35.90463 | 24.28117 | 13133 ft | 321 kts | 195° |
| 2026-05-07 13:11 | 35.88321 | 24.27519 | 12959 ft | 312 kts | 195° |
| 2026-05-07 13:11 | 35.86217 | 24.26933 | 12645 ft | 308 kts | 195° |
| 2026-05-07 13:11 | 35.84133 | 24.26345 | 12393 ft | 307 kts | 197° |
| 2026-05-07 13:11 | 35.82273 | 24.25194 | 12136 ft | 298 kts | 226° |
| 2026-05-07 13:12 | 35.81199 | 24.23089 | 11893 ft | 290 kts | 258° |
| 2026-05-07 13:12 | 35.81206 | 24.20658 | 11651 ft | 286 kts | 287° |
| 2026-05-07 13:12 | 35.81843 | 24.18333 | 11410 ft | 285 kts | 288° |
| 2026-05-07 13:12 | 35.82260 | 24.15977 | 11164 ft | 279 kts | 276° |
| 2026-05-07 13:13 | 35.82261 | 24.13608 | 10921 ft | 274 kts | 265° |
| 2026-05-07 13:13 | 35.81941 | 24.11321 | 10683 ft | 269 kts | 251° |
| 2026-05-07 13:13 | 35.80946 | 24.09407 | 10448 ft | 266 kts | 226° |
| 2026-05-07 13:13 | 35.79589 | 24.07914 | 10162 ft | 259 kts | 221° |
| 2026-05-07 13:14 | 35.78208 | 24.06503 | 9679 ft | 257 kts | 221° |
| 2026-05-07 13:14 | 35.76763 | 24.05227 | 9215 ft | 256 kts | 210° |
| 2026-05-07 13:14 | 35.75168 | 24.04280 | 8851 ft | 254 kts | 205° |
| 2026-05-07 13:14 | 35.73559 | 24.03399 | 8452 ft | 252 kts | 205° |
| 2026-05-07 13:15 | 35.71959 | 24.02530 | 8157 ft | 250 kts | 205° |
| 2026-05-07 13:15 | 35.70911 | 24.01960 | 7933 ft | 246 kts | 205° |
| 2026-05-07 13:15 | 35.69369 | 24.01120 | 7622 ft | 238 kts | 205° |
| 2026-05-07 13:15 | 35.67890 | 24.00312 | 7323 ft | 229 kts | 205° |
| 2026-05-07 13:16 | 35.66431 | 23.99518 | 6857 ft | 229 kts | 205° |
| 2026-05-07 13:16 | 35.64984 | 23.98722 | 6399 ft | 227 kts | 205° |
| 2026-05-07 13:16 | 35.63556 | 23.97929 | 5980 ft | 223 kts | 205° |
| 2026-05-07 13:16 | 35.62142 | 23.97141 | 5471 ft | 224 kts | 204° |
| 2026-05-07 13:17 | 35.60680 | 23.96457 | 4862 ft | 225 kts | 193° |
| 2026-05-07 13:17 | 35.59157 | 23.96369 | 4266 ft | 218 kts | 165° |
| 2026-05-07 13:17 | 35.57950 | 23.97344 | 3834 ft | 207 kts | 124° |
| 2026-05-07 13:17 | 35.57563 | 23.98988 | 3491 ft | 198 kts | 95° |
| 2026-05-07 13:18 | 35.57465 | 24.00635 | 3241 ft | 188 kts | 97° |
| 2026-05-07 13:18 | 35.57214 | 24.02160 | 2969 ft | 176 kts | 107° |
| 2026-05-07 13:18 | 35.56839 | 24.03542 | 2740 ft | 167 kts | 110° |
| 2026-05-07 13:18 | 35.56446 | 24.04841 | 2490 ft | 157 kts | 111° |
| 2026-05-07 13:19 | 35.56051 | 24.06057 | 2199 ft | 151 kts | 111° |
| 2026-05-07 13:19 | 35.55670 | 24.07243 | 1898 ft | 148 kts | 112° |
| 2026-05-07 13:19 | 35.55307 | 24.08416 | 1597 ft | 146 kts | 111° |
| 2026-05-07 13:19 | 35.54938 | 24.09571 | 1294 ft | 144 kts | 112° |
| 2026-05-07 13:20 | 35.54558 | 24.10704 | 1069 ft | 143 kts | 111° |
| 2026-05-07 13:20 | 35.54190 | 24.11839 | 830 ft | 142 kts | 111° |
| 2026-05-07 13:20 | 35.53823 | 24.12964 | 630 ft | 142 kts | 111° |
| 2026-05-07 13:20 | 35.53467 | 24.14068 | 509 ft | 131 kts | 111° |
| 2026-05-07 13:21 | 35.53176 | 24.14962 | 492 ft | 86 kts | 111° |
| 2026-05-07 13:21 | 35.53013 | 24.15461 | 484 ft | 48 kts | 111° |
| 2026-05-07 13:21 | 35.52909 | 24.15778 | 491 ft | 25 kts | 112° |
| 2026-05-07 13:21 | 35.52887 | 24.15907 | 495 ft | 11 kts | 65° |
| 2026-05-07 13:22 | 35.52945 | 24.15957 | 494 ft | 9 kts | 23° |
| 2026-05-07 13:22 | 35.52982 | 24.15973 | 494 ft | 0 kts | 18° |
| 2026-05-07 13:23 | 35.53005 | 24.15980 | 493 ft | 7 kts | 6° |
| 2026-05-07 13:23 | 35.53035 | 24.15949 | 492 ft | 5 kts | 296° |
| 2026-05-07 13:23 | 35.53053 | 24.15898 | 493 ft | 10 kts | 294° |
| 2026-05-07 13:23 | 35.53093 | 24.15785 | 489 ft | 16 kts | 291° |
| 2026-05-07 13:24 | 35.53134 | 24.15657 | 488 ft | 16 kts | 293° |
| 2026-05-07 13:24 | 35.53173 | 24.15533 | 495 ft | 15 kts | 291° |
| 2026-05-07 13:24 | 35.53211 | 24.15417 | 492 ft | 14 kts | 291° |
| 2026-05-07 13:24 | 35.53247 | 24.15305 | 492 ft | 14 kts | 292° |
| 2026-05-07 13:25 | 35.53281 | 24.15202 | 489 ft | 13 kts | 291° |
| 2026-05-07 13:25 | 35.53313 | 24.15103 | 489 ft | 12 kts | 291° |
| 2026-05-07 13:25 | 35.53345 | 24.15005 | 497 ft | 14 kts | 291° |
| 2026-05-07 13:25 | 35.53388 | 24.14874 | 491 ft | 19 kts | 291° |
| 2026-05-07 13:26 | 35.53440 | 24.14714 | 493 ft | 21 kts | 291° |
| 2026-05-07 13:26 | 35.53491 | 24.14557 | 497 ft | 18 kts | 292° |
| 2026-05-07 13:26 | 35.53533 | 24.14428 | 494 ft | 14 kts | 291° |
| 2026-05-07 13:26 | 35.53563 | 24.14350 | 492 ft | 7 kts | 315° |
| 2026-05-07 13:27 | 35.53598 | 24.14343 | 490 ft | 4 kts | 10° |
| 2026-05-07 13:27 | 35.53622 | 24.14352 | 488 ft | 4 kts | 19° |
| 2026-05-07 13:27 | 35.53658 | 24.14363 | 494 ft | 6 kts | 3° |
| 2026-05-07 13:27 | 35.53702 | 24.14369 | 491 ft | 7 kts | 18° |
| 2026-05-07 13:28 | 35.53734 | 24.14384 | 495 ft | 3 kts | 21° |
| 2026-05-07 13:28 | 35.53742 | 24.14388 | 491 ft | 0 kts | 21° |
| 2026-05-07 13:28 | 35.53745 | 24.14390 | 493 ft | 1 kts | 21° |
| 2026-05-07 13:28 | 35.53753 | 24.14393 | 493 ft | 0 kts | 22° |
| 2026-05-07 13:29 | 35.53757 | 24.14395 | 494 ft | 0 kts | 22° |